Time;durP1;ratioP1;P1;durP2;ratioP2;P2;SDS_P1;SDS_P2;PMS_P1;PMS_P2;Temp;Humidity;BMP_temperature;BMP_pressure;BME280_temperature;BME280_humidity;BME280_pressure;Samples;Min_cycle;Max_cycle;Signal;HPM_P1;HPM_P2
2023/03/18 00:00:15;;;;;;;6.38;4.38;;;;;;;;;;5047612;28;20190;-52
2023/03/18 00:02:41;;;;;;;6.15;4.28;;;;;;;;;;5048281;28;20171;-52
2023/03/18 00:05:08;;;;;;;5.22;4.20;;;;;;;;;;5038063;28;20187;-52
2023/03/18 00:07:35;;;;;;;6.25;4.05;;;;;;;;;;5042594;28;20179;-52
2023/03/18 00:10:01;;;;;;;4.70;3.85;;;;;;;;;;5072817;28;20190;-52
2023/03/18 00:12:27;;;;;;;7.05;3.65;;;;;;;;;;5059938;28;20433;-53
2023/03/18 00:14:53;;;;;;;7.00;3.80;;;;;;;;;;5048444;28;20193;-52
2023/03/18 00:17:19;;;;;;;5.20;3.88;;;;;;;;;;5039647;28;20215;-52
2023/03/18 00:19:45;;;;;;;4.68;3.50;;;;;;;;;;5059366;28;20200;-52
2023/03/18 00:22:11;;;;;;;5.95;4.00;;;;;;;;;;5054062;28;20171;-52
2023/03/18 00:24:37;;;;;;;4.40;3.50;;;;;;;;;;5041237;28;20569;-52
2023/03/18 00:27:03;;;;;;;4.25;3.22;;;;;;;;;;5042965;28;20233;-52
2023/03/18 00:29:30;;;;;;;6.63;3.58;;;;;;;;;;5040434;28;20203;-52
2023/03/18 00:31:59;;;;;;;4.95;3.38;;;;;;;;;;5046555;28;20600;-52
2023/03/18 00:34:25;;;;;;;5.22;3.90;;;;;;;;;;5046234;28;20841;-52
2023/03/18 00:36:55;;;;;;;6.78;3.83;;;;;;;;;;5058972;28;20491;-52
2023/03/18 00:39:25;;;;;;;4.70;3.72;;;;;;;;;;5057359;28;20270;-52
2023/03/18 00:41:51;;;;;;;4.93;3.45;;;;;;;;;;5052787;28;20226;-52
2023/03/18 00:44:18;;;;;;;4.60;3.42;;;;;;;;;;5036480;28;20179;-52
2023/03/18 00:46:44;;;;;;;6.10;3.92;;;;;;;;;;5045401;28;20171;-52
2023/03/18 00:49:11;;;;;;;5.78;3.88;;;;;;;;;;5037175;28;20436;-52
2023/03/18 00:51:40;;;;;;;5.93;3.65;;;;;;;;;;5037611;28;20494;-52
2023/03/18 00:54:08;;;;;;;4.18;3.40;;;;;;;;;;5045664;28;20183;-52
2023/03/18 00:56:35;;;;;;;4.55;3.50;;;;;;;;;;5044809;28;20587;-53
2023/03/18 00:59:01;;;;;;;4.25;3.38;;;;;;;;;;5043923;28;20210;-52
2023/03/18 01:01:28;;;;;;;6.13;3.75;;;;;;;;;;5039873;28;20205;-52
2023/03/18 01:03:54;;;;;;;6.32;3.88;;;;;;;;;;5042290;28;20266;-52
2023/03/18 01:06:21;;;;;;;5.68;3.63;;;;;;;;;;5045467;28;20175;-52
2023/03/18 01:08:48;;;;;;;7.38;4.20;;;;;;;;;;5055177;28;20563;-52
2023/03/18 01:11:14;;;;;;;7.85;4.47;;;;;;;;;;5048539;28;20191;-53
2023/03/18 01:13:40;;;;;;;5.68;3.72;;;;;;;;;;5038921;28;20514;-52
2023/03/18 01:16:06;;;;;;;6.65;4.13;;;;;;;;;;5038964;28;20234;-53
2023/03/18 01:18:33;;;;;;;4.32;3.88;;;;;;;;;;5047618;28;20175;-52
2023/03/18 01:20:59;;;;;;;6.03;4.40;;;;;;;;;;5043477;28;20285;-53
2023/03/18 01:23:25;;;;;;;7.35;3.88;;;;;;;;;;5039644;28;20653;-52
2023/03/18 01:25:51;;;;;;;6.82;4.25;;;;;;;;;;5046874;28;20197;-52
2023/03/18 01:28:17;;;;;;;4.88;3.90;;;;;;;;;;5045663;28;20262;-52
2023/03/18 01:30:43;;;;;;;6.53;3.97;;;;;;;;;;5042535;28;20314;-52
2023/03/18 01:33:09;;;;;;;7.75;4.50;;;;;;;;;;5044810;28;20187;-52
2023/03/18 01:35:36;;;;;;;7.22;4.30;;;;;;;;;;5036420;28;20211;-53
2023/03/18 01:38:04;;;;;;;5.70;4.32;;;;;;;;;;5039578;28;20450;-52
2023/03/18 01:40:31;;;;;;;5.85;4.10;;;;;;;;;;5041869;28;20173;-52
2023/03/18 01:42:58;;;;;;;5.35;4.10;;;;;;;;;;5043328;28;20179;-52
2023/03/18 01:45:27;;;;;;;4.50;3.72;;;;;;;;;;5043604;28;20202;-52
2023/03/18 01:47:53;;;;;;;5.97;4.13;;;;;;;;;;5043254;28;20193;-52
2023/03/18 01:50:21;;;;;;;5.32;3.85;;;;;;;;;;5042515;28;20191;-52
2023/03/18 01:52:48;;;;;;;7.13;4.60;;;;;;;;;;5043234;28;20183;-52
2023/03/18 01:55:19;;;;;;;6.40;4.68;;;;;;;;;;5037491;28;20546;-52
2023/03/18 01:57:46;;;;;;;7.57;4.75;;;;;;;;;;5042420;28;20187;-52
2023/03/18 02:00:15;;;;;;;8.82;4.70;;;;;;;;;;5034542;28;20497;-52
2023/03/18 02:02:41;;;;;;;5.15;3.90;;;;;;;;;;5038445;28;20178;-52
2023/03/18 02:05:10;;;;;;;6.47;4.45;;;;;;;;;;5032933;28;20225;-52
2023/03/18 02:07:36;;;;;;;7.85;4.45;;;;;;;;;;5034893;28;20270;-52
2023/03/18 02:10:07;;;;;;;7.57;4.57;;;;;;;;;;5050028;28;20218;-52
2023/03/18 02:12:35;;;;;;;7.25;4.25;;;;;;;;;;5050786;28;20205;-52
2023/03/18 02:15:03;;;;;;;5.75;4.22;;;;;;;;;;5034828;28;20267;-52
2023/03/18 02:17:31;;;;;;;5.65;4.35;;;;;;;;;;5049130;28;20552;-52
2023/03/18 02:20:11;;;;;;;6.22;4.38;;;;;;;;;;5037327;28;20266;-52
2023/03/18 02:22:43;;;;;;;7.63;4.53;;;;;;;;;;5044700;28;20226;-52
2023/03/18 02:25:09;;;;;;;6.50;4.25;;;;;;;;;;5034182;28;20233;-52
2023/03/18 02:27:36;;;;;;;5.97;4.47;;;;;;;;;;5045897;28;20458;-52
2023/03/18 02:30:06;;;;;;;5.45;4.28;;;;;;;;;;5041473;28;20311;-52
2023/03/18 02:32:33;;;;;;;7.30;4.93;;;;;;;;;;5043951;28;20188;-52
2023/03/18 02:35:00;;;;;;;5.03;4.10;;;;;;;;;;5035965;28;20552;-52
2023/03/18 02:37:26;;;;;;;6.75;3.95;;;;;;;;;;5040046;28;20251;-52
2023/03/18 02:39:52;;;;;;;6.80;4.30;;;;;;;;;;5070718;28;20202;-52
2023/03/18 02:42:29;;;;;;;7.07;4.45;;;;;;;;;;5045500;28;20226;-53
2023/03/18 02:44:55;;;;;;;6.18;4.18;;;;;;;;;;5036380;28;20187;-52
2023/03/18 02:47:21;;;;;;;5.63;4.28;;;;;;;;;;5045682;28;20592;-52
2023/03/18 02:49:48;;;;;;;6.13;4.20;;;;;;;;;;5057533;28;20191;-52
2023/03/18 02:52:14;;;;;;;7.38;4.70;;;;;;;;;;5040298;28;20566;-52
2023/03/18 02:54:40;;;;;;;8.45;4.80;;;;;;;;;;5047792;28;20422;-52
2023/03/18 02:57:06;;;;;;;6.40;4.78;;;;;;;;;;5058438;28;20194;-52
2023/03/18 02:59:32;;;;;;;7.03;4.88;;;;;;;;;;5048967;28;20228;-53
2023/03/18 03:01:59;;;;;;;6.18;4.47;;;;;;;;;;5043583;28;20188;-52
2023/03/18 03:04:25;;;;;;;5.07;4.05;;;;;;;;;;5041940;28;20267;-52
2023/03/18 03:06:51;;;;;;;5.75;3.63;;;;;;;;;;5039840;28;20206;-52
2023/03/18 03:09:18;;;;;;;5.53;3.92;;;;;;;;;;5052426;28;20689;-52
2023/03/18 03:11:45;;;;;;;6.95;4.32;;;;;;;;;;5062697;28;20234;-52
2023/03/18 03:14:12;;;;;;;5.13;4.05;;;;;;;;;;5041161;28;20430;-52
2023/03/18 03:16:38;;;;;;;5.00;3.67;;;;;;;;;;5040215;28;21061;-52
2023/03/18 03:19:04;;;;;;;5.20;4.18;;;;;;;;;;5041076;28;20183;-52
2023/03/18 03:21:31;;;;;;;6.53;3.83;;;;;;;;;;5047496;28;20746;-52
2023/03/18 03:23:58;;;;;;;6.43;3.58;;;;;;;;;;5051149;28;20215;-52
2023/03/18 03:26:24;;;;;;;5.60;3.85;;;;;;;;;;5044997;28;20573;-53
2023/03/18 03:28:50;;;;;;;5.90;3.90;;;;;;;;;;5040787;28;20219;-53
2023/03/18 03:31:17;;;;;;;5.40;3.60;;;;;;;;;;5045605;28;20303;-52
2023/03/18 03:33:43;;;;;;;6.18;3.33;;;;;;;;;;5041879;28;20211;-52
2023/03/18 03:36:10;;;;;;;6.05;3.58;;;;;;;;;;5036239;28;20366;-52
2023/03/18 03:38:36;;;;;;;4.53;3.55;;;;;;;;;;5056398;28;20187;-52
2023/03/18 03:41:02;;;;;;;4.10;3.40;;;;;;;;;;5047582;28;20611;-52
2023/03/18 03:43:28;;;;;;;4.72;3.40;;;;;;;;;;5053533;28;20266;-52
2023/03/18 03:45:54;;;;;;;5.05;3.78;;;;;;;;;;5043915;28;20194;-52
2023/03/18 03:48:21;;;;;;;6.78;3.53;;;;;;;;;;5051002;28;20195;-52
2023/03/18 03:50:47;;;;;;;4.80;3.70;;;;;;;;;;5051538;28;20183;-53
2023/03/18 03:53:13;;;;;;;5.28;4.10;;;;;;;;;;5046755;28;20240;-52
2023/03/18 03:55:40;;;;;;;5.65;3.42;;;;;;;;;;5054551;28;20190;-52
2023/03/18 03:58:06;;;;;;;5.00;3.60;;;;;;;;;;5043911;28;20195;-52
2023/03/18 04:00:32;;;;;;;4.18;3.47;;;;;;;;;;5038680;28;20644;-52
2023/03/18 04:02:58;;;;;;;5.50;3.72;;;;;;;;;;5043446;28;20183;-52
2023/03/18 04:05:24;;;;;;;4.57;3.28;;;;;;;;;;5036797;28;20194;-53
2023/03/18 04:07:51;;;;;;;5.38;3.60;;;;;;;;;;5045389;28;20547;-52
2023/03/18 04:10:18;;;;;;;4.38;3.40;;;;;;;;;;5045603;28;20191;-52
2023/03/18 04:12:45;;;;;;;7.22;4.20;;;;;;;;;;5049688;28;20183;-52
2023/03/18 04:15:11;;;;;;;4.32;3.42;;;;;;;;;;5051844;28;20207;-53
2023/03/18 04:17:38;;;;;;;3.95;3.35;;;;;;;;;;5041396;28;20206;-52
2023/03/18 04:20:04;;;;;;;4.88;3.80;;;;;;;;;;5059171;28;20191;-52
2023/03/18 04:22:30;;;;;;;5.53;3.97;;;;;;;;;;5046890;28;20275;-52
2023/03/18 04:24:57;;;;;;;5.55;3.72;;;;;;;;;;5049506;28;20263;-52
2023/03/18 04:27:23;;;;;;;3.95;3.55;;;;;;;;;;5036138;28;20188;-52
2023/03/18 04:29:49;;;;;;;6.88;3.40;;;;;;;;;;5041791;28;20195;-52
2023/03/18 04:32:15;;;;;;;5.03;3.70;;;;;;;;;;5035306;28;20645;-52
2023/03/18 04:34:41;;;;;;;4.10;3.38;;;;;;;;;;5064518;28;20453;-52
2023/03/18 04:37:07;;;;;;;5.32;3.33;;;;;;;;;;5042061;28;20717;-52
2023/03/18 04:39:33;;;;;;;5.60;3.35;;;;;;;;;;5056850;28;20187;-53
2023/03/18 04:41:59;;;;;;;4.15;3.50;;;;;;;;;;5056750;28;20178;-52
2023/03/18 04:44:25;;;;;;;5.75;3.67;;;;;;;;;;5051188;28;20507;-53
2023/03/18 04:46:52;;;;;;;5.40;3.75;;;;;;;;;;5042855;28;20369;-52
2023/03/18 04:49:18;;;;;;;6.32;3.55;;;;;;;;;;5052739;28;20209;-52
2023/03/18 04:51:45;;;;;;;5.47;3.83;;;;;;;;;;5051649;28;20187;-52
2023/03/18 04:54:11;;;;;;;6.70;3.83;;;;;;;;;;5046552;28;20184;-52
2023/03/18 04:56:38;;;;;;;5.80;3.88;;;;;;;;;;5046109;28;20233;-52
2023/03/18 04:59:04;;;;;;;5.93;3.97;;;;;;;;;;5042128;28;20179;-52
2023/03/18 05:01:30;;;;;;;4.97;3.80;;;;;;;;;;5042868;28;20206;-52
2023/03/18 05:03:56;;;;;;;5.28;4.05;;;;;;;;;;5040279;28;20308;-52
2023/03/18 05:06:24;;;;;;;5.22;3.85;;;;;;;;;;5043149;28;20184;-53
2023/03/18 05:08:50;;;;;;;8.90;4.53;;;;;;;;;;5039997;28;20547;-52
2023/03/18 05:11:16;;;;;;;5.55;4.30;;;;;;;;;;5055836;28;20191;-52
2023/03/18 05:13:42;;;;;;;5.78;3.75;;;;;;;;;;5041292;28;20581;-52
2023/03/18 05:16:08;;;;;;;6.22;4.28;;;;;;;;;;5046721;28;20219;-52
2023/03/18 05:18:34;;;;;;;6.78;4.07;;;;;;;;;;5050917;28;20176;-52
2023/03/18 05:21:01;;;;;;;7.03;4.28;;;;;;;;;;5047935;28;20237;-52
2023/03/18 05:23:27;;;;;;;6.90;4.22;;;;;;;;;;5039343;28;20203;-52
2023/03/18 05:25:53;;;;;;;5.18;3.63;;;;;;;;;;5039704;28;20226;-52
2023/03/18 05:28:20;;;;;;;4.90;3.60;;;;;;;;;;5035228;28;20219;-52
2023/03/18 05:30:46;;;;;;;7.05;4.18;;;;;;;;;;5047185;28;20233;-52
2023/03/18 05:33:18;;;;;;;4.78;3.65;;;;;;;;;;5099897;27;20563;-52
2023/03/18 05:35:45;;;;;;;6.07;3.63;;;;;;;;;;5105246;28;20548;-52
2023/03/18 05:38:11;;;;;;;7.20;4.28;;;;;;;;;;5110403;28;20269;-52
2023/03/18 05:40:38;;;;;;;5.25;3.90;;;;;;;;;;5101900;28;20261;-52
2023/03/18 05:43:04;;;;;;;6.63;3.60;;;;;;;;;;5115672;28;20243;-52
2023/03/18 05:45:29;;;;;;;6.13;3.97;;;;;;;;;;5106115;28;20231;-52
2023/03/18 05:47:56;;;;;;;5.35;3.80;;;;;;;;;;5107456;28;20180;-52
2023/03/18 05:50:29;;;;;;;6.57;3.60;;;;;;;;;;5096763;28;20228;-52
2023/03/18 05:52:55;;;;;;;4.95;3.28;;;;;;;;;;5104694;28;20211;-52
2023/03/18 05:55:22;;;;;;;4.13;3.50;;;;;;;;;;5109522;28;20586;-52
2023/03/18 05:57:48;;;;;;;5.30;3.97;;;;;;;;;;5100264;28;20529;-52
2023/03/18 06:00:14;;;;;;;4.93;3.25;;;;;;;;;;5091060;28;20258;-52
2023/03/18 06:02:40;;;;;;;5.88;3.40;;;;;;;;;;5089905;28;20273;-52
2023/03/18 06:05:06;;;;;;;5.72;3.60;;;;;;;;;;5099696;28;20454;-52
2023/03/18 06:07:33;;;;;;;4.80;3.60;;;;;;;;;;5092510;28;20186;-52
2023/03/18 06:09:59;;;;;;;7.78;3.75;;;;;;;;;;5097518;28;20453;-52
2023/03/18 06:12:26;;;;;;;6.40;4.03;;;;;;;;;;5085906;28;20221;-52
2023/03/18 06:14:53;;;;;;;6.70;3.97;;;;;;;;;;5098226;28;20185;-52
2023/03/18 06:17:19;;;;;;;7.55;4.57;;;;;;;;;;5090002;28;20457;-52
2023/03/18 06:19:45;;;;;;;7.00;4.78;;;;;;;;;;5094879;28;20193;-52
2023/03/18 06:22:11;;;;;;;9.27;4.50;;;;;;;;;;5091139;28;20182;-52
2023/03/18 06:24:37;;;;;;;7.43;4.90;;;;;;;;;;5090517;28;20450;-52
2023/03/18 06:27:03;;;;;;;9.82;5.10;;;;;;;;;;5088984;28;20178;-52
2023/03/18 06:29:29;;;;;;;8.25;5.10;;;;;;;;;;5085399;28;20190;-52
2023/03/18 06:31:55;;;;;;;7.47;5.00;;;;;;;;;;5088127;28;20209;-52
2023/03/18 06:34:21;;;;;;;8.30;5.30;;;;;;;;;;5089790;28;20192;-52
2023/03/18 06:36:47;;;;;;;6.55;5.18;;;;;;;;;;5090068;28;20189;-52
2023/03/18 06:39:13;;;;;;;9.57;5.32;;;;;;;;;;5089636;28;20219;-52
2023/03/18 06:41:39;;;;;;;10.20;4.80;;;;;;;;;;5104586;28;20268;-52
2023/03/18 06:44:05;;;;;;;8.48;4.95;;;;;;;;;;5079416;28;20190;-52
2023/03/18 06:46:31;;;;;;;6.82;4.68;;;;;;;;;;5074738;28;20446;-52
2023/03/18 06:48:57;;;;;;;6.40;4.78;;;;;;;;;;5076231;28;20198;-52
2023/03/18 06:51:23;;;;;;;7.65;5.05;;;;;;;;;;5076498;28;20210;-52
2023/03/18 06:53:50;;;;;;;9.55;5.57;;;;;;;;;;5079931;28;20201;-52
2023/03/18 06:56:16;;;;;;;7.28;4.90;;;;;;;;;;5078625;28;20309;-52
2023/03/18 06:58:42;;;;;;;7.47;5.10;;;;;;;;;;5075112;28;20610;-52
2023/03/18 07:01:11;;;;;;;8.02;5.32;;;;;;;;;;5071544;28;20544;-51
2023/03/18 07:03:37;;;;;;;6.45;4.50;;;;;;;;;;5074831;28;20194;-51
2023/03/18 07:06:03;;;;;;;5.95;4.05;;;;;;;;;;5073697;28;20215;-52
2023/03/18 07:08:29;;;;;;;9.38;4.72;;;;;;;;;;5075727;28;20225;-51
2023/03/18 07:10:55;;;;;;;10.02;5.20;;;;;;;;;;5080422;28;20180;-52
2023/03/18 07:13:21;;;;;;;11.32;4.65;;;;;;;;;;5078223;28;20187;-51
2023/03/18 07:15:47;;;;;;;6.88;4.93;;;;;;;;;;5073243;28;20178;-51
2023/03/18 07:18:13;;;;;;;10.20;4.13;;;;;;;;;;5074643;28;20269;-51
2023/03/18 07:20:40;;;;;;;6.70;3.72;;;;;;;;;;5074192;28;20186;-52
2023/03/18 07:23:06;;;;;;;8.55;4.55;;;;;;;;;;5075164;28;20202;-52
2023/03/18 07:25:32;;;;;;;6.28;4.13;;;;;;;;;;5074804;28;20237;-52
2023/03/18 07:27:59;;;;;;;7.80;4.03;;;;;;;;;;5072546;28;20189;-52
2023/03/18 07:30:26;;;;;;;8.10;4.13;;;;;;;;;;5073405;28;20185;-51
2023/03/18 07:32:52;;;;;;;8.52;3.88;;;;;;;;;;5072196;28;20199;-52
2023/03/18 07:35:18;;;;;;;5.22;3.53;;;;;;;;;;5075688;28;20490;-46
2023/03/18 07:37:44;;;;;;;12.43;4.47;;;;;;;;;;5075384;28;20183;-48
2023/03/18 07:40:11;;;;;;;7.40;3.58;;;;;;;;;;5082141;28;20178;-50
2023/03/18 07:42:37;;;;;;;18.05;4.40;;;;;;;;;;5074003;28;20281;-53
2023/03/18 07:45:06;;;;;;;12.48;4.63;;;;;;;;;;5075071;28;20220;-56
2023/03/18 07:47:32;;;;;;;15.18;3.90;;;;;;;;;;5072464;28;20217;-56
2023/03/18 07:49:58;;;;;;;7.97;3.55;;;;;;;;;;5074568;28;20222;-55
2023/03/18 07:52:24;;;;;;;12.70;3.97;;;;;;;;;;5073373;28;20213;-54
2023/03/18 07:54:51;;;;;;;8.98;3.58;;;;;;;;;;5071637;28;20175;-54
2023/03/18 07:57:17;;;;;;;8.18;3.97;;;;;;;;;;5068182;28;20190;-53
2023/03/18 07:59:42;;;;;;;8.00;3.78;;;;;;;;;;5065425;28;20186;-54
2023/03/18 08:02:12;;;;;;;14.60;4.30;;;;;;;;;;5067729;28;20549;-54
2023/03/18 08:04:38;;;;;;;7.75;3.75;;;;;;;;;;5066267;28;20202;-54
2023/03/18 08:07:04;;;;;;;6.50;3.63;;;;;;;;;;5064566;28;20216;-54
2023/03/18 08:09:31;;;;;;;12.52;4.32;;;;;;;;;;5061070;28;20213;-54
2023/03/18 08:11:57;;;;;;;9.60;3.50;;;;;;;;;;5053790;28;20203;-55
2023/03/18 08:14:23;;;;;;;7.88;3.53;;;;;;;;;;5066670;28;20512;-55
2023/03/18 08:16:48;;;;;;;8.48;3.75;;;;;;;;;;5064349;28;20175;-54
2023/03/18 08:19:15;;;;;;;9.05;3.90;;;;;;;;;;5068712;28;20182;-54
2023/03/18 08:21:42;;;;;;;9.55;3.45;;;;;;;;;;5070692;28;20216;-54
2023/03/18 08:24:08;;;;;;;6.63;3.67;;;;;;;;;;5068389;28;20187;-54
2023/03/18 08:26:34;;;;;;;8.05;3.60;;;;;;;;;;5071379;28;20543;-54
2023/03/18 08:29:00;;;;;;;8.43;3.40;;;;;;;;;;5070438;28;20441;-54
2023/03/18 08:31:26;;;;;;;8.75;3.58;;;;;;;;;;5072660;28;20206;-54
2023/03/18 08:33:55;;;;;;;8.40;3.60;;;;;;;;;;5067400;28;20339;-54
2023/03/18 08:36:21;;;;;;;9.60;3.65;;;;;;;;;;5069663;28;20197;-54
2023/03/18 08:38:48;;;;;;;6.13;3.03;;;;;;;;;;5069720;28;20537;-54
2023/03/18 08:41:15;;;;;;;7.13;3.25;;;;;;;;;;5071683;28;20621;-54
2023/03/18 08:43:41;;;;;;;5.65;3.60;;;;;;;;;;5073724;28;20554;-54
2023/03/18 08:46:07;;;;;;;8.15;3.33;;;;;;;;;;5078303;28;20174;-54
2023/03/18 08:48:34;;;;;;;7.25;3.08;;;;;;;;;;5074927;28;20189;-54
2023/03/18 08:51:02;;;;;;;4.85;3.08;;;;;;;;;;5081843;28;20542;-54
2023/03/18 08:53:28;;;;;;;3.72;3.08;;;;;;;;;;5090606;28;20182;-54
2023/03/18 08:55:54;;;;;;;4.75;2.95;;;;;;;;;;5074304;28;20193;-54
2023/03/18 08:58:20;;;;;;;6.57;3.15;;;;;;;;;;5072976;28;20200;-54
2023/03/18 09:00:46;;;;;;;8.30;3.15;;;;;;;;;;5087005;28;20554;-54
2023/03/18 09:03:13;;;;;;;7.75;3.05;;;;;;;;;;5071841;28;20618;-54
2023/03/18 09:05:39;;;;;;;4.88;3.00;;;;;;;;;;5069967;28;20519;-54
2023/03/18 09:08:05;;;;;;;5.30;3.05;;;;;;;;;;5073940;28;20230;-54
2023/03/18 09:10:32;;;;;;;5.45;3.20;;;;;;;;;;5073788;28;20202;-54
2023/03/18 09:12:59;;;;;;;4.32;2.90;;;;;;;;;;5074093;28;20210;-54
2023/03/18 09:15:26;;;;;;;8.68;3.15;;;;;;;;;;5082442;28;20224;-54
2023/03/18 09:17:52;;;;;;;6.97;2.92;;;;;;;;;;5074155;28;20224;-54
2023/03/18 09:20:18;;;;;;;4.90;2.88;;;;;;;;;;5072660;28;20187;-54
2023/03/18 09:22:45;;;;;;;4.13;2.47;;;;;;;;;;5073744;28;20182;-54
2023/03/18 09:25:12;;;;;;;5.80;2.60;;;;;;;;;;5082206;28;20624;-54
2023/03/18 09:27:38;;;;;;;6.63;2.75;;;;;;;;;;5073263;28;20186;-54
2023/03/18 09:30:04;;;;;;;3.10;2.47;;;;;;;;;;5074243;28;20228;-54
2023/03/18 09:32:30;;;;;;;3.92;2.70;;;;;;;;;;5073605;28;20300;-54
2023/03/18 09:34:56;;;;;;;5.53;2.85;;;;;;;;;;5081984;28;20166;-54
2023/03/18 09:37:22;;;;;;;4.97;2.50;;;;;;;;;;5087858;28;20185;-54
2023/03/18 09:39:50;;;;;;;4.72;3.08;;;;;;;;;;5076823;28;20236;-54
2023/03/18 09:42:20;;;;;;;4.00;2.55;;;;;;;;;;5073235;28;20668;-54
2023/03/18 09:44:49;;;;;;;5.35;2.75;;;;;;;;;;5072972;28;20175;-54
2023/03/18 09:47:18;;;;;;;4.72;2.67;;;;;;;;;;5073587;28;20445;-56
2023/03/18 09:49:44;;;;;;;3.78;2.55;;;;;;;;;;5073837;28;20178;-54
2023/03/18 09:52:17;;;;;;;4.50;2.63;;;;;;;;;;5073424;28;20254;-54
2023/03/18 09:54:54;;;;;;;4.32;2.60;;;;;;;;;;5072705;28;20265;-54
2023/03/18 09:57:34;;;;;;;4.13;2.50;;;;;;;;;;5074176;28;20174;-54
2023/03/18 10:00:07;;;;;;;4.80;2.33;;;;;;;;;;5065613;28;20445;-54
2023/03/18 10:02:36;;;;;;;4.53;2.67;;;;;;;;;;5070067;28;20174;-55
2023/03/18 10:05:06;;;;;;;4.38;2.35;;;;;;;;;;5081329;28;20194;-54
2023/03/18 10:07:35;;;;;;;3.50;2.58;;;;;;;;;;5082119;28;20189;-54
2023/03/18 10:10:09;;;;;;;4.70;2.50;;;;;;;;;;5076303;28;20277;-54
2023/03/18 10:12:38;;;;;;;4.72;2.70;;;;;;;;;;5076417;28;20464;-54
2023/03/18 10:15:15;;;;;;;3.95;2.70;;;;;;;;;;5089571;28;20175;-54
2023/03/18 10:17:48;;;;;;;5.03;2.40;;;;;;;;;;5073786;28;20178;-54
2023/03/18 10:20:31;;;;;;;4.07;2.40;;;;;;;;;;5082603;28;20186;-54
2023/03/18 10:23:01;;;;;;;2.53;1.92;;;;;;;;;;5077514;28;20190;-54
2023/03/18 10:25:38;;;;;;;2.88;2.08;;;;;;;;;;5077016;28;20194;-54
2023/03/18 10:28:16;;;;;;;3.88;2.30;;;;;;;;;;5076844;28;20546;-54
2023/03/18 10:30:56;;;;;;;3.58;2.30;;;;;;;;;;5085066;28;20181;-54
2023/03/18 10:33:33;;;;;;;4.32;2.75;;;;;;;;;;5083712;28;20304;-54
2023/03/18 10:35:59;;;;;;;2.15;1.67;;;;;;;;;;5077311;28;20186;-54
2023/03/18 10:38:29;;;;;;;2.25;2.05;;;;;;;;;;5084243;28;20444;-54
2023/03/18 10:40:55;;;;;;;3.17;2.00;;;;;;;;;;5077187;28;20178;-54
2023/03/18 10:43:24;;;;;;;3.35;2.20;;;;;;;;;;5083539;28;20193;-54
2023/03/18 10:45:55;;;;;;;3.13;2.17;;;;;;;;;;5076579;28;20174;-54
2023/03/18 10:48:28;;;;;;;2.58;1.88;;;;;;;;;;5083289;28;20605;-54
2023/03/18 10:51:07;;;;;;;2.88;2.15;;;;;;;;;;5079999;28;20182;-54
2023/03/18 10:53:44;;;;;;;3.15;2.28;;;;;;;;;;5080287;28;20193;-54
2023/03/18 10:56:11;;;;;;;4.32;2.10;;;;;;;;;;5085279;28;20182;-55
2023/03/18 10:58:38;;;;;;;2.58;1.83;;;;;;;;;;5076932;28;20174;-54
2023/03/18 11:01:08;;;;;;;3.35;2.30;;;;;;;;;;5083376;28;20185;-54
2023/03/18 11:03:36;;;;;;;2.20;2.00;;;;;;;;;;5080734;28;20174;-54
2023/03/18 11:06:03;;;;;;;3.63;1.98;;;;;;;;;;5076315;28;20553;-55
2023/03/18 11:08:33;;;;;;;2.30;1.95;;;;;;;;;;5076648;28;20442;-54
2023/03/18 11:11:18;;;;;;;3.67;2.00;;;;;;;;;;5079026;28;20422;-54
2023/03/18 11:13:47;;;;;;;2.83;1.98;;;;;;;;;;5078826;28;20572;-54
2023/03/18 11:16:21;;;;;;;2.65;1.98;;;;;;;;;;5084823;28;20282;-54
2023/03/18 11:18:48;;;;;;;3.55;2.20;;;;;;;;;;5089327;28;20189;-54
2023/03/18 11:21:15;;;;;;;2.72;2.00;;;;;;;;;;5080934;28;20185;-54
2023/03/18 11:23:55;;;;;;;2.22;1.90;;;;;;;;;;5078405;28;20186;-54
2023/03/18 11:26:25;;;;;;;3.13;2.05;;;;;;;;;;5084329;28;20190;-54
2023/03/18 11:28:58;;;;;;;2.28;1.88;;;;;;;;;;5075473;28;20213;-54
2023/03/18 11:31:24;;;;;;;2.95;1.90;;;;;;;;;;5085366;28;20249;-54
2023/03/18 11:33:56;;;;;;;2.33;1.73;;;;;;;;;;5075897;28;20206;-54
2023/03/18 11:36:22;;;;;;;1.90;1.73;;;;;;;;;;5073405;28;20214;-54
2023/03/18 11:39:00;;;;;;;2.38;1.80;;;;;;;;;;5084699;28;20185;-54
2023/03/18 11:41:28;;;;;;;2.28;1.88;;;;;;;;;;5082631;28;20182;-54
2023/03/18 11:43:55;;;;;;;2.42;1.98;;;;;;;;;;5072212;28;20185;-54
2023/03/18 11:46:22;;;;;;;3.33;1.90;;;;;;;;;;5074579;28;20191;-54
2023/03/18 11:48:48;;;;;;;2.47;1.80;;;;;;;;;;5075626;28;20225;-54
2023/03/18 11:51:33;;;;;;;2.13;1.52;;;;;;;;;;5075327;28;20558;-54
2023/03/18 11:54:18;;;;;;;3.42;1.85;;;;;;;;;;5074900;28;20175;-54
2023/03/18 11:57:03;;;;;;;3.03;1.70;;;;;;;;;;5075265;28;20185;-54
2023/03/18 11:59:29;;;;;;;1.60;1.50;;;;;;;;;;5075534;28;20178;-54
2023/03/18 12:02:15;;;;;;;2.20;1.70;;;;;;;;;;5073430;28;20186;-54
2023/03/18 12:04:49;;;;;;;1.85;1.67;;;;;;;;;;5066397;28;20185;-54
2023/03/18 12:07:34;;;;;;;1.67;1.52;;;;;;;;;;5075663;28;20186;-54
2023/03/18 12:10:09;;;;;;;3.15;1.92;;;;;;;;;;5073834;28;20202;-54
2023/03/18 12:12:49;;;;;;;2.38;1.75;;;;;;;;;;5074745;28;20210;-54
2023/03/18 12:15:35;;;;;;;2.25;1.77;;;;;;;;;;5068851;28;20182;-54
2023/03/18 12:18:09;;;;;;;2.80;1.58;;;;;;;;;;5067237;28;21425;-54
2023/03/18 12:20:42;;;;;;;2.67;1.75;;;;;;;;;;5066122;28;20179;-54
2023/03/18 12:23:34;;;;;;;1.70;1.60;;;;;;;;;;5057203;28;20186;-54
2023/03/18 12:26:07;;;;;;;2.35;1.70;;;;;;;;;;5071973;28;20191;-54
2023/03/18 12:28:58;;;;;;;1.95;1.42;;;;;;;;;;5074014;28;20222;-54
2023/03/18 12:31:38;;;;;;;3.05;1.70;;;;;;;;;;5067395;28;20270;-54
2023/03/18 12:34:13;;;;;;;2.75;1.58;;;;;;;;;;5074083;28;20462;-54
2023/03/18 12:36:57;;;;;;;2.33;1.60;;;;;;;;;;5073759;28;20186;-54
2023/03/18 12:39:35;;;;;;;3.80;1.55;;;;;;;;;;5073953;28;20197;-54
2023/03/18 12:42:02;;;;;;;2.35;1.70;;;;;;;;;;5073537;28;20457;-54
2023/03/18 12:44:33;;;;;;;2.00;1.48;;;;;;;;;;5074044;28;20221;-54
2023/03/18 12:47:14;;;;;;;1.50;1.40;;;;;;;;;;5072585;28;20210;-54
2023/03/18 12:49:52;;;;;;;1.80;1.58;;;;;;;;;;5073824;28;20182;-55
2023/03/18 12:52:27;;;;;;;2.17;1.40;;;;;;;;;;5069520;28;20229;-54
2023/03/18 12:55:02;;;;;;;1.65;1.33;;;;;;;;;;5072986;28;20178;-54
2023/03/18 12:57:47;;;;;;;1.67;1.30;;;;;;;;;;5072983;28;20180;-54
2023/03/18 13:00:17;;;;;;;2.63;1.50;;;;;;;;;;5062527;28;20253;-54
2023/03/18 13:03:04;;;;;;;1.95;1.67;;;;;;;;;;5072400;28;20572;-54
2023/03/18 13:05:32;;;;;;;1.27;1.17;;;;;;;;;;5067679;28;20208;-54
2023/03/18 13:08:18;;;;;;;2.03;1.52;;;;;;;;;;5079861;28;20500;-54
2023/03/18 13:10:46;;;;;;;2.05;1.52;;;;;;;;;;5071659;28;20213;-54
2023/03/18 13:13:13;;;;;;;2.40;1.40;;;;;;;;;;5072527;28;20218;-54
2023/03/18 13:15:48;;;;;;;1.50;1.38;;;;;;;;;;5073141;28;20182;-54
2023/03/18 13:18:23;;;;;;;1.35;1.25;;;;;;;;;;5070463;28;20553;-54
2023/03/18 13:20:50;;;;;;;1.50;1.40;;;;;;;;;;5076736;28;20189;-54
2023/03/18 13:23:25;;;;;;;1.45;1.20;;;;;;;;;;5073645;28;20190;-54
2023/03/18 13:26:09;;;;;;;1.70;1.40;;;;;;;;;;5072210;28;20312;-54
2023/03/18 13:28:47;;;;;;;1.60;1.50;;;;;;;;;;5073195;28;20561;-54
2023/03/18 13:31:20;;;;;;;1.50;1.35;;;;;;;;;;5076677;28;20532;-54
2023/03/18 13:34:15;;;;;;;2.33;1.50;;;;;;;;;;5070899;28;20174;-54
2023/03/18 13:36:53;;;;;;;1.20;1.10;;;;;;;;;;5010283;28;20193;-54
2023/03/18 13:39:26;;;;;;;2.17;1.40;;;;;;;;;;5075875;28;20189;-54
2023/03/18 13:42:06;;;;;;;1.75;1.30;;;;;;;;;;5074366;28;20504;-54
2023/03/18 13:44:56;;;;;;;1.35;1.23;;;;;;;;;;5070500;28;20239;-54
2023/03/18 13:47:23;;;;;;;1.25;1.15;;;;;;;;;;5044628;28;20236;-54
2023/03/18 13:49:58;;;;;;;2.03;1.17;;;;;;;;;;5075225;28;20178;-54
2023/03/18 13:52:27;;;;;;;1.45;1.30;;;;;;;;;;5071967;28;20205;-54
2023/03/18 13:54:53;;;;;;;1.45;1.35;;;;;;;;;;5074589;28;20265;-54
2023/03/18 13:57:28;;;;;;;2.30;1.58;;;;;;;;;;5080395;28;20257;-54
2023/03/18 14:00:21;;;;;;;1.48;1.23;;;;;;;;;;5084985;28;20235;-54
2023/03/18 14:03:00;;;;;;;2.22;1.30;;;;;;;;;;5045941;28;20265;-54
2023/03/18 14:05:32;;;;;;;1.20;1.10;;;;;;;;;;5075918;28;20474;-55
2023/03/18 14:07:59;;;;;;;1.35;1.20;;;;;;;;;;5073771;28;20198;-54
2023/03/18 14:10:25;;;;;;;1.38;1.20;;;;;;;;;;5075719;28;20629;-54
2023/03/18 14:12:51;;;;;;;1.20;1.10;;;;;;;;;;5077060;28;20209;-55
2023/03/18 14:15:23;;;;;;;1.05;0.98;;;;;;;;;;5076441;28;20441;-55
2023/03/18 14:17:54;;;;;;;1.13;1.02;;;;;;;;;;5078949;28;20252;-55
2023/03/18 14:20:22;;;;;;;1.40;1.30;;;;;;;;;;5069459;28;20232;-55
2023/03/18 14:22:50;;;;;;;1.42;1.27;;;;;;;;;;5074750;28;20209;-55
2023/03/18 14:25:21;;;;;;;1.17;1.10;;;;;;;;;;5074794;28;20186;-55
2023/03/18 14:27:54;;;;;;;1.02;1.00;;;;;;;;;;5075559;28;20191;-55
2023/03/18 14:30:39;;;;;;;1.13;1.08;;;;;;;;;;5072828;28;20197;-55
2023/03/18 14:33:25;;;;;;;1.60;1.23;;;;;;;;;;5074129;28;20340;-55
2023/03/18 14:36:02;;;;;;;1.52;1.30;;;;;;;;;;5079242;28;20166;-54
2023/03/18 14:38:35;;;;;;;1.30;1.05;;;;;;;;;;5073726;28;20178;-55
2023/03/18 14:41:02;;;;;;;1.30;1.15;;;;;;;;;;5075831;28;20585;-55
2023/03/18 14:43:32;;;;;;;1.17;1.00;;;;;;;;;;5079169;28;20187;-55
2023/03/18 14:46:00;;;;;;;1.25;1.15;;;;;;;;;;5071425;28;20749;-55
2023/03/18 14:48:28;;;;;;;1.25;1.10;;;;;;;;;;5073787;28;20179;-55
2023/03/18 14:50:58;;;;;;;1.30;1.20;;;;;;;;;;5077741;28;20261;-55
2023/03/18 14:53:27;;;;;;;1.05;0.93;;;;;;;;;;5073507;28;20289;-55